sensor_id;sensor_type;location;lat;lon;timestamp;P1;durP1;ratioP1;P2;durP2;ratioP2
33006;SDS011;19361;51.598;7.650;2023-06-01T00:01:28;5.88;;;3.78;;
33006;SDS011;19361;51.598;7.650;2023-06-01T00:06:53;6.93;;;4.40;;
33006;SDS011;19361;51.598;7.650;2023-06-01T00:12:15;7.50;;;4.70;;
33006;SDS011;19361;51.598;7.650;2023-06-01T00:17:36;11.40;;;5.13;;
33006;SDS011;19361;51.598;7.650;2023-06-01T00:22:57;8.88;;;5.13;;
33006;SDS011;19361;51.598;7.650;2023-06-01T00:28:22;12.10;;;4.75;;
33006;SDS011;19361;51.598;7.650;2023-06-01T00:33:43;10.10;;;6.10;;
33006;SDS011;19361;51.598;7.650;2023-06-01T00:39:05;9.95;;;6.03;;
33006;SDS011;19361;51.598;7.650;2023-06-01T00:44:26;13.40;;;5.70;;
33006;SDS011;19361;51.598;7.650;2023-06-01T00:49:47;14.98;;;6.60;;
33006;SDS011;19361;51.598;7.650;2023-06-01T00:55:08;9.50;;;7.00;;
33006;SDS011;19361;51.598;7.650;2023-06-01T01:00:31;11.25;;;7.75;;
33006;SDS011;19361;51.598;7.650;2023-06-01T01:05:55;16.88;;;8.00;;
33006;SDS011;19361;51.598;7.650;2023-06-01T01:11:32;10.77;;;7.20;;
33006;SDS011;19361;51.598;7.650;2023-06-01T01:17:01;13.77;;;8.93;;
33006;SDS011;19361;51.598;7.650;2023-06-01T01:33:29;13.68;;;10.05;;
33006;SDS011;19361;51.598;7.650;2023-06-01T01:38:52;18.80;;;11.63;;
33006;SDS011;19361;51.598;7.650;2023-06-01T01:44:13;17.90;;;11.63;;
33006;SDS011;19361;51.598;7.650;2023-06-01T01:49:42;19.80;;;11.80;;
33006;SDS011;19361;51.598;7.650;2023-06-01T01:55:07;21.00;;;11.93;;
33006;SDS011;19361;51.598;7.650;2023-06-01T02:00:30;18.55;;;11.55;;
33006;SDS011;19361;51.598;7.650;2023-06-01T02:05:52;17.35;;;11.55;;
33006;SDS011;19361;51.598;7.650;2023-06-01T02:11:13;14.55;;;11.07;;
33006;SDS011;19361;51.598;7.650;2023-06-01T02:16:34;18.60;;;12.23;;
33006;SDS011;19361;51.598;7.650;2023-06-01T02:21:56;21.35;;;13.20;;
33006;SDS011;19361;51.598;7.650;2023-06-01T02:27:17;23.77;;;14.18;;
33006;SDS011;19361;51.598;7.650;2023-06-01T02:32:38;26.33;;;15.32;;
33006;SDS011;19361;51.598;7.650;2023-06-01T02:37:59;25.95;;;16.70;;
33006;SDS011;19361;51.598;7.650;2023-06-01T02:43:20;28.45;;;18.35;;
33006;SDS011;19361;51.598;7.650;2023-06-01T02:48:41;26.52;;;17.02;;
33006;SDS011;19361;51.598;7.650;2023-06-01T02:54:02;22.83;;;16.77;;
33006;SDS011;19361;51.598;7.650;2023-06-01T02:59:24;23.20;;;16.40;;
33006;SDS011;19361;51.598;7.650;2023-06-01T03:04:45;26.23;;;18.35;;
33006;SDS011;19361;51.598;7.650;2023-06-01T03:10:07;24.42;;;16.33;;
33006;SDS011;19361;51.598;7.650;2023-06-01T03:15:29;23.33;;;14.63;;
33006;SDS011;19361;51.598;7.650;2023-06-01T03:20:50;18.70;;;14.60;;
33006;SDS011;19361;51.598;7.650;2023-06-01T03:26:12;22.17;;;14.35;;
33006;SDS011;19361;51.598;7.650;2023-06-01T03:31:34;23.80;;;13.75;;
33006;SDS011;19361;51.598;7.650;2023-06-01T03:36:55;21.23;;;14.10;;
33006;SDS011;19361;51.598;7.650;2023-06-01T03:42:16;19.02;;;13.88;;
33006;SDS011;19361;51.598;7.650;2023-06-01T03:47:39;19.92;;;12.95;;
33006;SDS011;19361;51.598;7.650;2023-06-01T03:53:01;19.83;;;12.77;;
33006;SDS011;19361;51.598;7.650;2023-06-01T03:58:22;23.52;;;14.30;;
33006;SDS011;19361;51.598;7.650;2023-06-01T04:03:44;17.27;;;12.30;;
33006;SDS011;19361;51.598;7.650;2023-06-01T04:09:05;16.73;;;13.70;;
33006;SDS011;19361;51.598;7.650;2023-06-01T04:14:29;20.23;;;14.93;;
33006;SDS011;19361;51.598;7.650;2023-06-01T04:19:50;19.33;;;13.77;;
33006;SDS011;19361;51.598;7.650;2023-06-01T04:25:14;18.80;;;13.70;;
33006;SDS011;19361;51.598;7.650;2023-06-01T04:30:38;21.27;;;12.65;;
33006;SDS011;19361;51.598;7.650;2023-06-01T04:36:01;19.42;;;13.05;;
33006;SDS011;19361;51.598;7.650;2023-06-01T04:41:23;17.45;;;13.10;;
33006;SDS011;19361;51.598;7.650;2023-06-01T04:46:49;17.10;;;12.05;;
33006;SDS011;19361;51.598;7.650;2023-06-01T04:52:12;18.90;;;12.52;;
33006;SDS011;19361;51.598;7.650;2023-06-01T04:57:36;20.00;;;13.00;;
33006;SDS011;19361;51.598;7.650;2023-06-01T05:02:59;19.35;;;13.43;;
33006;SDS011;19361;51.598;7.650;2023-06-01T05:08:20;19.55;;;12.02;;
33006;SDS011;19361;51.598;7.650;2023-06-01T05:13:41;19.85;;;10.57;;
33006;SDS011;19361;51.598;7.650;2023-06-01T05:19:04;13.60;;;9.77;;
33006;SDS011;19361;51.598;7.650;2023-06-01T05:24:26;15.77;;;10.20;;
33006;SDS011;19361;51.598;7.650;2023-06-01T05:29:47;15.45;;;10.60;;
33006;SDS011;19361;51.598;7.650;2023-06-01T05:35:08;12.65;;;9.65;;
33006;SDS011;19361;51.598;7.650;2023-06-01T05:40:29;17.13;;;9.85;;
33006;SDS011;19361;51.598;7.650;2023-06-01T05:45:50;14.48;;;9.75;;
33006;SDS011;19361;51.598;7.650;2023-06-01T05:51:13;14.02;;;10.15;;
33006;SDS011;19361;51.598;7.650;2023-06-01T05:56:34;13.98;;;9.85;;
33006;SDS011;19361;51.598;7.650;2023-06-01T06:01:57;16.05;;;10.30;;
33006;SDS011;19361;51.598;7.650;2023-06-01T06:07:18;13.95;;;10.45;;
33006;SDS011;19361;51.598;7.650;2023-06-01T06:12:39;12.10;;;9.07;;
33006;SDS011;19361;51.598;7.650;2023-06-01T06:18:00;17.52;;;11.00;;
33006;SDS011;19361;51.598;7.650;2023-06-01T06:23:21;13.85;;;9.52;;
33006;SDS011;19361;51.598;7.650;2023-06-01T06:28:42;14.50;;;9.55;;
33006;SDS011;19361;51.598;7.650;2023-06-01T06:34:03;15.15;;;9.50;;
33006;SDS011;19361;51.598;7.650;2023-06-01T06:39:25;17.30;;;10.38;;
33006;SDS011;19361;51.598;7.650;2023-06-01T06:44:46;15.23;;;9.48;;
33006;SDS011;19361;51.598;7.650;2023-06-01T06:50:07;17.73;;;9.85;;
33006;SDS011;19361;51.598;7.650;2023-06-01T06:55:28;16.58;;;9.27;;
33006;SDS011;19361;51.598;7.650;2023-06-01T07:00:50;14.55;;;9.80;;
33006;SDS011;19361;51.598;7.650;2023-06-01T07:06:11;16.42;;;9.32;;
33006;SDS011;19361;51.598;7.650;2023-06-01T07:11:32;15.63;;;10.07;;
33006;SDS011;19361;51.598;7.650;2023-06-01T07:16:53;11.25;;;8.82;;
33006;SDS011;19361;51.598;7.650;2023-06-01T07:22:14;12.65;;;8.75;;
33006;SDS011;19361;51.598;7.650;2023-06-01T07:27:36;13.32;;;9.63;;
33006;SDS011;19361;51.598;7.650;2023-06-01T07:32:57;12.70;;;9.02;;
33006;SDS011;19361;51.598;7.650;2023-06-01T07:38:19;16.92;;;9.15;;
33006;SDS011;19361;51.598;7.650;2023-06-01T07:43:40;16.48;;;9.35;;
33006;SDS011;19361;51.598;7.650;2023-06-01T07:49:01;16.23;;;8.88;;
33006;SDS011;19361;51.598;7.650;2023-06-01T07:54:23;14.45;;;9.20;;
33006;SDS011;19361;51.598;7.650;2023-06-01T07:59:44;15.35;;;8.73;;
33006;SDS011;19361;51.598;7.650;2023-06-01T08:05:06;13.40;;;8.32;;
33006;SDS011;19361;51.598;7.650;2023-06-01T08:10:28;11.27;;;7.82;;
33006;SDS011;19361;51.598;7.650;2023-06-01T08:15:49;15.45;;;9.30;;
33006;SDS011;19361;51.598;7.650;2023-06-01T08:21:10;13.85;;;8.98;;
33006;SDS011;19361;51.598;7.650;2023-06-01T08:26:31;15.90;;;9.68;;
33006;SDS011;19361;51.598;7.650;2023-06-01T08:31:52;16.17;;;8.82;;
33006;SDS011;19361;51.598;7.650;2023-06-01T08:37:14;12.15;;;8.60;;
33006;SDS011;19361;51.598;7.650;2023-06-01T08:42:43;15.07;;;10.48;;
33006;SDS011;19361;51.598;7.650;2023-06-01T08:48:20;21.23;;;12.02;;
33006;SDS011;19361;51.598;7.650;2023-06-01T08:53:41;18.48;;;11.00;;
33006;SDS011;19361;51.598;7.650;2023-06-01T08:59:04;14.88;;;10.68;;
33006;SDS011;19361;51.598;7.650;2023-06-01T09:04:26;15.90;;;10.93;;
33006;SDS011;19361;51.598;7.650;2023-06-01T09:09:47;16.40;;;11.65;;
33006;SDS011;19361;51.598;7.650;2023-06-01T09:20:32;18.83;;;12.35;;
33006;SDS011;19361;51.598;7.650;2023-06-01T09:26:09;19.27;;;14.27;;
33006;SDS011;19361;51.598;7.650;2023-06-01T09:42:33;12.07;;;10.77;;
33006;SDS011;19361;51.598;7.650;2023-06-01T09:47:57;19.55;;;11.70;;
33006;SDS011;19361;51.598;7.650;2023-06-01T09:53:42;15.70;;;11.07;;
33006;SDS011;19361;51.598;7.650;2023-06-01T09:59:04;17.85;;;12.27;;
33006;SDS011;19361;51.598;7.650;2023-06-01T10:04:26;17.67;;;11.43;;
33006;SDS011;19361;51.598;7.650;2023-06-01T10:09:53;20.38;;;12.43;;
33006;SDS011;19361;51.598;7.650;2023-06-01T10:15:18;11.40;;;9.60;;
33006;SDS011;19361;51.598;7.650;2023-06-01T10:20:39;18.95;;;12.07;;
33006;SDS011;19361;51.598;7.650;2023-06-01T10:26:04;19.23;;;13.57;;
33006;SDS011;19361;51.598;7.650;2023-06-01T10:31:33;23.50;;;13.15;;
33006;SDS011;19361;51.598;7.650;2023-06-01T10:47:44;21.52;;;13.68;;
33006;SDS011;19361;51.598;7.650;2023-06-01T11:04:36;19.42;;;13.00;;
33006;SDS011;19361;51.598;7.650;2023-06-01T11:09:57;17.52;;;12.40;;
33006;SDS011;19361;51.598;7.650;2023-06-01T11:15:18;17.75;;;11.95;;
33006;SDS011;19361;51.598;7.650;2023-06-01T11:20:42;21.13;;;10.95;;
33006;SDS011;19361;51.598;7.650;2023-06-01T11:26:06;16.38;;;10.75;;
33006;SDS011;19361;51.598;7.650;2023-06-01T11:31:27;14.23;;;9.43;;
33006;SDS011;19361;51.598;7.650;2023-06-01T11:36:59;16.42;;;10.20;;
33006;SDS011;19361;51.598;7.650;2023-06-01T11:42:22;15.07;;;9.02;;
33006;SDS011;19361;51.598;7.650;2023-06-01T11:47:44;15.82;;;8.90;;
33006;SDS011;19361;51.598;7.650;2023-06-01T11:53:06;15.82;;;9.68;;
33006;SDS011;19361;51.598;7.650;2023-06-01T11:58:27;11.70;;;8.65;;
33006;SDS011;19361;51.598;7.650;2023-06-01T12:03:50;14.57;;;7.85;;
33006;SDS011;19361;51.598;7.650;2023-06-01T12:09:11;18.83;;;9.32;;
33006;SDS011;19361;51.598;7.650;2023-06-01T12:14:36;13.15;;;8.60;;
33006;SDS011;19361;51.598;7.650;2023-06-01T12:19:57;18.67;;;9.63;;
33006;SDS011;19361;51.598;7.650;2023-06-01T12:25:18;13.57;;;8.38;;
33006;SDS011;19361;51.598;7.650;2023-06-01T12:30:39;12.23;;;8.38;;
33006;SDS011;19361;51.598;7.650;2023-06-01T12:36:00;13.32;;;8.18;;
33006;SDS011;19361;51.598;7.650;2023-06-01T12:41:24;11.63;;;8.35;;
33006;SDS011;19361;51.598;7.650;2023-06-01T12:46:45;13.18;;;9.38;;
33006;SDS011;19361;51.598;7.650;2023-06-01T12:52:06;13.95;;;9.50;;
33006;SDS011;19361;51.598;7.650;2023-06-01T12:57:27;18.10;;;11.95;;
33006;SDS011;19361;51.598;7.650;2023-06-01T13:02:48;19.67;;;11.32;;
33006;SDS011;19361;51.598;7.650;2023-06-01T13:08:10;16.33;;;12.20;;
33006;SDS011;19361;51.598;7.650;2023-06-01T13:13:33;19.90;;;15.07;;
33006;SDS011;19361;51.598;7.650;2023-06-01T13:18:54;19.58;;;15.18;;
33006;SDS011;19361;51.598;7.650;2023-06-01T13:24:15;20.65;;;15.73;;
33006;SDS011;19361;51.598;7.650;2023-06-01T13:29:36;16.67;;;14.20;;
33006;SDS011;19361;51.598;7.650;2023-06-01T13:34:57;15.75;;;14.15;;
33006;SDS011;19361;51.598;7.650;2023-06-01T13:40:19;16.17;;;12.10;;
33006;SDS011;19361;51.598;7.650;2023-06-01T13:45:43;12.05;;;10.75;;
33006;SDS011;19361;51.598;7.650;2023-06-01T13:51:04;11.38;;;9.25;;
33006;SDS011;19361;51.598;7.650;2023-06-01T13:56:26;8.85;;;7.82;;
33006;SDS011;19361;51.598;7.650;2023-06-01T14:01:47;10.98;;;8.05;;
33006;SDS011;19361;51.598;7.650;2023-06-01T14:07:08;7.90;;;6.97;;
33006;SDS011;19361;51.598;7.650;2023-06-01T14:12:29;8.52;;;7.18;;
33006;SDS011;19361;51.598;7.650;2023-06-01T14:17:50;7.57;;;6.78;;
33006;SDS011;19361;51.598;7.650;2023-06-01T14:23:11;11.55;;;7.50;;
33006;SDS011;19361;51.598;7.650;2023-06-01T14:28:32;9.25;;;6.53;;
33006;SDS011;19361;51.598;7.650;2023-06-01T14:33:53;10.80;;;7.85;;
33006;SDS011;19361;51.598;7.650;2023-06-01T14:39:15;7.82;;;6.90;;
33006;SDS011;19361;51.598;7.650;2023-06-01T14:44:36;12.70;;;7.63;;
33006;SDS011;19361;51.598;7.650;2023-06-01T14:49:57;10.00;;;6.97;;
33006;SDS011;19361;51.598;7.650;2023-06-01T14:55:19;13.13;;;7.20;;
33006;SDS011;19361;51.598;7.650;2023-06-01T15:00:40;12.07;;;7.10;;
33006;SDS011;19361;51.598;7.650;2023-06-01T15:06:01;11.00;;;7.55;;
33006;SDS011;19361;51.598;7.650;2023-06-01T15:11:23;6.88;;;6.28;;
33006;SDS011;19361;51.598;7.650;2023-06-01T15:16:44;7.38;;;6.50;;
33006;SDS011;19361;51.598;7.650;2023-06-01T15:22:05;6.28;;;5.43;;
33006;SDS011;19361;51.598;7.650;2023-06-01T15:27:27;7.97;;;6.13;;
33006;SDS011;19361;51.598;7.650;2023-06-01T15:32:48;6.15;;;5.50;;
33006;SDS011;19361;51.598;7.650;2023-06-01T15:38:09;5.43;;;4.50;;
33006;SDS011;19361;51.598;7.650;2023-06-01T15:43:30;6.93;;;4.70;;
33006;SDS011;19361;51.598;7.650;2023-06-01T15:48:54;7.03;;;4.68;;
33006;SDS011;19361;51.598;7.650;2023-06-01T15:54:15;5.78;;;5.32;;
33006;SDS011;19361;51.598;7.650;2023-06-01T15:59:36;6.18;;;5.57;;
33006;SDS011;19361;51.598;7.650;2023-06-01T16:04:57;5.90;;;5.05;;
33006;SDS011;19361;51.598;7.650;2023-06-01T16:10:18;5.40;;;4.57;;
33006;SDS011;19361;51.598;7.650;2023-06-01T16:15:46;6.47;;;4.15;;
33006;SDS011;19361;51.598;7.650;2023-06-01T16:21:07;3.88;;;3.47;;
33006;SDS011;19361;51.598;7.650;2023-06-01T16:26:28;4.10;;;3.80;;
33006;SDS011;19361;51.598;7.650;2023-06-01T16:31:50;3.53;;;3.22;;
33006;SDS011;19361;51.598;7.650;2023-06-01T16:37:11;4.93;;;3.30;;
33006;SDS011;19361;51.598;7.650;2023-06-01T16:42:32;3.90;;;3.00;;
33006;SDS011;19361;51.598;7.650;2023-06-01T16:47:53;4.45;;;3.00;;
33006;SDS011;19361;51.598;7.650;2023-06-01T16:53:15;3.42;;;3.13;;
33006;SDS011;19361;51.598;7.650;2023-06-01T16:58:36;7.88;;;3.45;;
33006;SDS011;19361;51.598;7.650;2023-06-01T17:03:57;8.60;;;3.50;;
33006;SDS011;19361;51.598;7.650;2023-06-01T17:09:18;6.65;;;3.80;;
33006;SDS011;19361;51.598;7.650;2023-06-01T17:14:39;5.03;;;3.33;;
33006;SDS011;19361;51.598;7.650;2023-06-01T17:20:00;4.78;;;3.60;;
33006;SDS011;19361;51.598;7.650;2023-06-01T17:25:23;3.50;;;3.20;;
33006;SDS011;19361;51.598;7.650;2023-06-01T17:30:45;6.10;;;3.80;;
33006;SDS011;19361;51.598;7.650;2023-06-01T17:36:06;6.45;;;3.63;;
33006;SDS011;19361;51.598;7.650;2023-06-01T17:41:27;5.28;;;4.30;;
33006;SDS011;19361;51.598;7.650;2023-06-01T17:46:48;3.90;;;3.60;;
33006;SDS011;19361;51.598;7.650;2023-06-01T17:52:09;5.63;;;3.85;;
33006;SDS011;19361;51.598;7.650;2023-06-01T17:57:30;9.93;;;3.97;;
33006;SDS011;19361;51.598;7.650;2023-06-01T18:02:51;7.82;;;4.75;;
33006;SDS011;19361;51.598;7.650;2023-06-01T18:08:15;7.57;;;4.50;;
33006;SDS011;19361;51.598;7.650;2023-06-01T18:13:36;4.53;;;4.13;;
33006;SDS011;19361;51.598;7.650;2023-06-01T18:18:57;5.25;;;3.60;;
33006;SDS011;19361;51.598;7.650;2023-06-01T18:24:18;6.95;;;4.25;;
33006;SDS011;19361;51.598;7.650;2023-06-01T18:29:39;6.18;;;4.22;;
33006;SDS011;19361;51.598;7.650;2023-06-01T18:35:00;10.15;;;4.18;;
33006;SDS011;19361;51.598;7.650;2023-06-01T18:40:21;7.00;;;4.28;;
33006;SDS011;19361;51.598;7.650;2023-06-01T18:45:43;6.97;;;3.47;;
33006;SDS011;19361;51.598;7.650;2023-06-01T18:51:04;8.70;;;3.90;;
33006;SDS011;19361;51.598;7.650;2023-06-01T18:56:26;8.63;;;4.18;;
33006;SDS011;19361;51.598;7.650;2023-06-01T19:01:48;8.80;;;4.10;;
33006;SDS011;19361;51.598;7.650;2023-06-01T19:07:55;10.10;;;3.75;;
33006;SDS011;19361;51.598;7.650;2023-06-01T19:12:50;7.28;;;3.75;;
33006;SDS011;19361;51.598;7.650;2023-06-01T19:18:14;7.00;;;3.65;;
33006;SDS011;19361;51.598;7.650;2023-06-01T19:23:35;10.70;;;3.78;;
33006;SDS011;19361;51.598;7.650;2023-06-01T19:34:22;16.90;;;4.03;;
33006;SDS011;19361;51.598;7.650;2023-06-01T19:39:45;6.78;;;3.25;;
33006;SDS011;19361;51.598;7.650;2023-06-01T19:45:07;5.65;;;3.03;;
33006;SDS011;19361;51.598;7.650;2023-06-01T19:55:53;6.97;;;3.33;;
33006;SDS011;19361;51.598;7.650;2023-06-01T20:01:14;10.73;;;3.45;;
33006;SDS011;19361;51.598;7.650;2023-06-01T20:06:56;4.82;;;3.00;;
33006;SDS011;19361;51.598;7.650;2023-06-01T20:12:17;8.30;;;3.75;;
33006;SDS011;19361;51.598;7.650;2023-06-01T20:17:38;8.90;;;3.83;;
33006;SDS011;19361;51.598;7.650;2023-06-01T20:23:09;7.00;;;4.00;;
33006;SDS011;19361;51.598;7.650;2023-06-01T20:28:44;8.45;;;3.33;;
33006;SDS011;19361;51.598;7.650;2023-06-01T20:39:32;9.60;;;3.78;;
33006;SDS011;19361;51.598;7.650;2023-06-01T20:44:53;9.02;;;3.85;;
33006;SDS011;19361;51.598;7.650;2023-06-01T20:50:17;9.70;;;3.67;;
33006;SDS011;19361;51.598;7.650;2023-06-01T20:55:39;9.57;;;3.45;;
33006;SDS011;19361;51.598;7.650;2023-06-01T21:01:01;5.70;;;3.35;;
33006;SDS011;19361;51.598;7.650;2023-06-01T21:06:22;8.40;;;3.80;;
33006;SDS011;19361;51.598;7.650;2023-06-01T21:11:44;14.25;;;4.18;;
33006;SDS011;19361;51.598;7.650;2023-06-01T21:17:07;11.38;;;4.10;;
33006;SDS011;19361;51.598;7.650;2023-06-01T21:22:28;7.07;;;3.97;;
33006;SDS011;19361;51.598;7.650;2023-06-01T21:27:50;6.38;;;4.15;;
33006;SDS011;19361;51.598;7.650;2023-06-01T21:33:11;8.48;;;4.20;;
33006;SDS011;19361;51.598;7.650;2023-06-01T21:38:32;4.93;;;3.22;;
33006;SDS011;19361;51.598;7.650;2023-06-01T21:43:53;8.85;;;3.60;;
33006;SDS011;19361;51.598;7.650;2023-06-01T21:49:14;7.80;;;3.00;;
33006;SDS011;19361;51.598;7.650;2023-06-01T21:54:35;6.78;;;3.40;;
33006;SDS011;19361;51.598;7.650;2023-06-01T21:59:57;7.75;;;3.20;;
33006;SDS011;19361;51.598;7.650;2023-06-01T22:05:18;8.23;;;2.97;;
33006;SDS011;19361;51.598;7.650;2023-06-01T22:10:39;5.43;;;2.90;;
33006;SDS011;19361;51.598;7.650;2023-06-01T22:16:00;7.00;;;2.65;;
33006;SDS011;19361;51.598;7.650;2023-06-01T22:21:22;10.65;;;3.42;;
33006;SDS011;19361;51.598;7.650;2023-06-01T22:26:42;5.15;;;3.35;;
33006;SDS011;19361;51.598;7.650;2023-06-01T22:32:04;5.43;;;3.22;;
33006;SDS011;19361;51.598;7.650;2023-06-01T22:37:25;7.75;;;3.15;;
33006;SDS011;19361;51.598;7.650;2023-06-01T22:42:46;5.45;;;2.85;;
33006;SDS011;19361;51.598;7.650;2023-06-01T22:48:07;5.90;;;3.03;;
33006;SDS011;19361;51.598;7.650;2023-06-01T22:53:28;4.80;;;3.38;;
33006;SDS011;19361;51.598;7.650;2023-06-01T22:58:50;10.45;;;2.72;;
33006;SDS011;19361;51.598;7.650;2023-06-01T23:04:12;7.80;;;3.08;;
33006;SDS011;19361;51.598;7.650;2023-06-01T23:09:34;5.88;;;2.90;;
33006;SDS011;19361;51.598;7.650;2023-06-01T23:14:55;8.52;;;2.85;;
33006;SDS011;19361;51.598;7.650;2023-06-01T23:20:16;6.05;;;2.80;;
33006;SDS011;19361;51.598;7.650;2023-06-01T23:25:38;6.88;;;2.95;;
33006;SDS011;19361;51.598;7.650;2023-06-01T23:30:59;12.35;;;2.88;;
33006;SDS011;19361;51.598;7.650;2023-06-01T23:36:23;7.53;;;2.95;;
33006;SDS011;19361;51.598;7.650;2023-06-01T23:41:48;7.20;;;3.20;;
33006;SDS011;19361;51.598;7.650;2023-06-01T23:47:09;6.65;;;2.75;;
33006;SDS011;19361;51.598;7.650;2023-06-01T23:52:30;4.57;;;2.95;;
33006;SDS011;19361;51.598;7.650;2023-06-01T23:57:51;9.80;;;3.00;;
